sensor_id;sensor_type;location;lat;lon;timestamp;pressure;altitude;pressure_sealevel;temperature;humidity
8047;BME280;67150;42.516;23.358;2023-01-27T06:00:54;87256.31;;;8.34;57.68
8047;BME280;67150;42.516;23.358;2023-01-27T06:03:33;87257.41;;;8.11;57.17
8047;BME280;67150;42.516;23.358;2023-01-27T06:06:04;87213.03;;;7.62;57.36
8047;BME280;67150;42.516;23.358;2023-01-27T06:08:37;87239.16;;;7.69;57.30
8047;BME280;67150;42.516;23.358;2023-01-27T06:14:01;87246.34;;;7.53;57.54
8047;BME280;67150;42.516;23.358;2023-01-27T06:16:35;87248.19;;;7.51;57.30
8047;BME280;67150;42.516;23.358;2023-01-27T06:19:24;87264.19;;;7.60;57.49
8047;BME280;67150;42.516;23.358;2023-01-27T06:22:00;87257.59;;;7.59;57.16
8047;BME280;67150;42.516;23.358;2023-01-27T06:24:45;87248.19;;;7.51;57.34
8047;BME280;67150;42.516;23.358;2023-01-27T06:27:19;87258.25;;;7.61;57.19
8047;BME280;67150;42.516;23.358;2023-01-27T06:29:51;87253.38;;;7.59;57.07
8047;BME280;67150;42.516;23.358;2023-01-27T06:32:23;87256.19;;;7.66;57.26
8047;BME280;67150;42.516;23.358;2023-01-27T06:34:53;87259.59;;;7.65;57.18
8047;BME280;67150;42.516;23.358;2023-01-27T06:37:27;87264.91;;;7.71;57.80
8047;BME280;67150;42.516;23.358;2023-01-27T06:40:19;87248.84;;;8.54;57.59
8047;BME280;67150;42.516;23.358;2023-01-27T06:42:50;87263.72;;;8.45;56.77
8047;BME280;67150;42.516;23.358;2023-01-27T06:45:18;87195.44;;;7.93;56.58
8047;BME280;67150;42.516;23.358;2023-01-27T06:47:53;87252.63;;;8.08;56.97
8047;BME280;67150;42.516;23.358;2023-01-27T06:50:20;87240.72;;;7.91;57.02
8047;BME280;67150;42.516;23.358;2023-01-27T06:52:50;87246.38;;;7.93;56.90
8047;BME280;67150;42.516;23.358;2023-01-27T06:55:30;87258.41;;;7.89;57.12
8047;BME280;67150;42.516;23.358;2023-01-27T06:58:24;87273.00;;;7.84;57.32
8047;BME280;67150;42.516;23.358;2023-01-27T07:00:52;87271.06;;;7.88;57.09
8047;BME280;67150;42.516;23.358;2023-01-27T07:03:21;87275.75;;;8.42;57.86
8047;BME280;67150;42.516;23.358;2023-01-27T07:05:49;87275.25;;;8.67;57.24
8047;BME280;67150;42.516;23.358;2023-01-27T07:08:16;87274.97;;;8.61;57.12
8047;BME280;67150;42.516;23.358;2023-01-27T07:10:44;87266.09;;;8.37;56.38
8047;BME280;67150;42.516;23.358;2023-01-27T07:13:13;87266.56;;;8.22;56.31
8047;BME280;67150;42.516;23.358;2023-01-27T07:15:40;87259.00;;;8.12;56.80
8047;BME280;67150;42.516;23.358;2023-01-27T07:18:09;87259.09;;;8.01;56.83
8047;BME280;67150;42.516;23.358;2023-01-27T07:20:38;87257.75;;;7.97;57.00
8047;BME280;67150;42.516;23.358;2023-01-27T07:23:06;87259.84;;;7.92;56.73
8047;BME280;67150;42.516;23.358;2023-01-27T07:25:34;87260.91;;;7.89;57.10
8047;BME280;67150;42.516;23.358;2023-01-27T07:28:02;87256.16;;;7.86;56.74
8047;BME280;67150;42.516;23.358;2023-01-27T07:30:31;87268.00;;;7.84;57.23
8047;BME280;67150;42.516;23.358;2023-01-27T07:33:02;87271.19;;;7.86;56.74
8047;BME280;67150;42.516;23.358;2023-01-27T07:35:30;87276.44;;;7.83;56.87
8047;BME280;67150;42.516;23.358;2023-01-27T07:37:59;87271.69;;;7.80;57.22
8047;BME280;67150;42.516;23.358;2023-01-27T07:40:26;87262.28;;;7.73;56.67
8047;BME280;67150;42.516;23.358;2023-01-27T07:42:57;87282.63;;;7.79;56.86
8047;BME280;67150;42.516;23.358;2023-01-27T07:45:26;87277.19;;;7.74;56.82
8047;BME280;67150;42.516;23.358;2023-01-27T07:47:58;87286.28;;;7.75;57.06
8047;BME280;67150;42.516;23.358;2023-01-27T07:50:26;87284.03;;;7.72;57.08
8047;BME280;67150;42.516;23.358;2023-01-27T07:52:59;87285.06;;;7.70;57.30
8047;BME280;67150;42.516;23.358;2023-01-27T07:55:27;87282.72;;;7.68;56.90
8047;BME280;67150;42.516;23.358;2023-01-27T07:57:55;87274.00;;;7.72;57.14
8047;BME280;67150;42.516;23.358;2023-01-27T08:00:23;87276.91;;;7.68;56.96
8047;BME280;67150;42.516;23.358;2023-01-27T08:02:51;87284.41;;;7.68;57.21
8047;BME280;67150;42.516;23.358;2023-01-27T08:05:20;87287.47;;;7.71;56.90
8047;BME280;67150;42.516;23.358;2023-01-27T08:07:48;87277.16;;;7.65;57.01
8047;BME280;67150;42.516;23.358;2023-01-27T08:10:18;87281.34;;;7.64;57.20
8047;BME280;67150;42.516;23.358;2023-01-27T08:12:45;87277.94;;;7.65;56.93
8047;BME280;67150;42.516;23.358;2023-01-27T08:15:13;87279.66;;;7.65;57.24
8047;BME280;67150;42.516;23.358;2023-01-27T08:17:41;87272.25;;;7.63;57.18
8047;BME280;67150;42.516;23.358;2023-01-27T08:20:11;87279.91;;;7.62;57.25
8047;BME280;67150;42.516;23.358;2023-01-27T08:22:38;87288.78;;;7.66;57.09
8047;BME280;67150;42.516;23.358;2023-01-27T08:25:06;87288.09;;;7.64;57.10
8047;BME280;67150;42.516;23.358;2023-01-27T08:27:35;87233.19;;;7.30;57.39
8047;BME280;67150;42.516;23.358;2023-01-27T08:30:03;87293.09;;;7.64;57.21
8047;BME280;67150;42.516;23.358;2023-01-27T08:32:31;87293.22;;;7.62;56.84
8047;BME280;67150;42.516;23.358;2023-01-27T08:35:00;87276.84;;;7.58;56.79
8047;BME280;67150;42.516;23.358;2023-01-27T08:37:27;87288.31;;;7.61;57.10
8047;BME280;67150;42.516;23.358;2023-01-27T08:39:55;87286.50;;;7.93;59.06
8047;BME280;67150;42.516;23.358;2023-01-27T08:42:22;87280.19;;;7.99;57.45
8047;BME280;67150;42.516;23.358;2023-01-27T08:44:51;87274.34;;;7.88;56.85
8047;BME280;67150;42.516;23.358;2023-01-27T08:47:19;87278.78;;;7.75;56.91
8047;BME280;67150;42.516;23.358;2023-01-27T08:49:47;87280.63;;;7.73;56.96
8047;BME280;67150;42.516;23.358;2023-01-27T08:52:14;87282.47;;;7.71;56.85
8047;BME280;67150;42.516;23.358;2023-01-27T08:54:42;87286.69;;;7.71;56.93
8047;BME280;67150;42.516;23.358;2023-01-27T08:57:10;87281.00;;;7.69;57.07
8047;BME280;67150;42.516;23.358;2023-01-27T08:59:37;87282.81;;;7.67;57.13
8047;BME280;67150;42.516;23.358;2023-01-27T09:02:06;87288.63;;;7.67;57.17
8047;BME280;67150;42.516;23.358;2023-01-27T09:04:33;87285.47;;;7.65;57.17
8047;BME280;67150;42.516;23.358;2023-01-27T09:07:06;87288.78;;;7.66;56.72
8047;BME280;67150;42.516;23.358;2023-01-27T09:09:33;87286.13;;;7.67;56.71
8047;BME280;67150;42.516;23.358;2023-01-27T09:12:03;87279.66;;;7.65;56.71
8047;BME280;67150;42.516;23.358;2023-01-27T09:14:32;87281.13;;;7.67;56.93
8047;BME280;67150;42.516;23.358;2023-01-27T09:17:00;87283.06;;;7.64;56.80
8047;BME280;67150;42.516;23.358;2023-01-27T09:19:29;87277.94;;;7.65;56.73
8047;BME280;67150;42.516;23.358;2023-01-27T09:21:56;87284.53;;;7.66;56.74
8047;BME280;67150;42.516;23.358;2023-01-27T09:24:24;87279.00;;;7.63;57.04
8047;BME280;67150;42.516;23.358;2023-01-27T09:26:52;87284.91;;;7.62;56.79
8047;BME280;67150;42.516;23.358;2023-01-27T09:29:19;87283.22;;;7.62;56.78
8047;BME280;67150;42.516;23.358;2023-01-27T09:31:47;87284.53;;;7.66;56.66
8047;BME280;67150;42.516;23.358;2023-01-27T09:34:15;87281.59;;;7.61;56.84
8047;BME280;67150;42.516;23.358;2023-01-27T09:36:48;87249.47;;;7.46;56.84
8047;BME280;67150;42.516;23.358;2023-01-27T09:39:19;87211.38;;;7.21;56.77
8047;BME280;67150;42.516;23.358;2023-01-27T09:41:58;87270.78;;;7.61;57.16
8047;BME280;67150;42.516;23.358;2023-01-27T09:50:42;87249.84;;;8.32;58.55
8047;BME280;67150;42.516;23.358;2023-01-27T09:56:27;87240.50;;;9.30;55.05
8047;BME280;67150;42.516;23.358;2023-01-27T10:10:46;87232.84;;;9.12;54.06
8047;BME280;67150;42.516;23.358;2023-01-27T10:13:24;87226.78;;;9.15;53.73
8047;BME280;67150;42.516;23.358;2023-01-27T10:16:10;87222.00;;;9.12;53.89
8047;BME280;67150;42.516;23.358;2023-01-27T10:19:02;87222.94;;;9.11;53.57
8047;BME280;67150;42.516;23.358;2023-01-27T10:21:41;87208.81;;;9.10;53.43
8047;BME280;67150;42.516;23.358;2023-01-27T10:24:18;87218.97;;;9.08;53.55
8047;BME280;67150;42.516;23.358;2023-01-27T10:26:54;87222.28;;;9.09;53.17
8047;BME280;67150;42.516;23.358;2023-01-27T10:29:29;87227.41;;;9.07;53.36
8047;BME280;67150;42.516;23.358;2023-01-27T10:32:06;87230.22;;;9.04;53.45
8047;BME280;67150;42.516;23.358;2023-01-27T10:34:35;87215.41;;;9.01;52.88
8047;BME280;67150;42.516;23.358;2023-01-27T10:37:14;87204.03;;;8.97;53.17
8047;BME280;67150;42.516;23.358;2023-01-27T10:39:48;87209.88;;;8.97;53.37
8047;BME280;67150;42.516;23.358;2023-01-27T10:42:26;87218.06;;;8.99;52.92
8047;BME280;67150;42.516;23.358;2023-01-27T10:45:06;87214.34;;;8.94;52.96
8047;BME280;67150;42.516;23.358;2023-01-27T10:47:47;87215.16;;;8.94;52.88
8047;BME280;67150;42.516;23.358;2023-01-27T10:50:19;87210.13;;;8.94;53.05
8047;BME280;67150;42.516;23.358;2023-01-27T10:52:55;87207.09;;;8.91;52.88
8047;BME280;67150;42.516;23.358;2023-01-27T10:55:28;87207.34;;;8.88;53.04
8047;BME280;67150;42.516;23.358;2023-01-27T10:58:06;87209.72;;;8.89;52.93
8047;BME280;67150;42.516;23.358;2023-01-27T11:00:38;87209.72;;;8.89;52.75
8047;BME280;67150;42.516;23.358;2023-01-27T11:03:14;87209.22;;;8.86;52.61
8047;BME280;67150;42.516;23.358;2023-01-27T11:05:50;87206.16;;;8.82;52.95
8047;BME280;67150;42.516;23.358;2023-01-27T11:08:21;87207.63;;;8.85;52.76
8047;BME280;67150;42.516;23.358;2023-01-27T11:10:52;87187.53;;;8.75;52.60
8047;BME280;67150;42.516;23.358;2023-01-27T11:13:39;87203.91;;;8.79;52.72
8047;BME280;67150;42.516;23.358;2023-01-27T11:16:13;87197.44;;;8.77;52.70
8047;BME280;67150;42.516;23.358;2023-01-27T11:18:42;87186.72;;;8.75;52.88
8047;BME280;67150;42.516;23.358;2023-01-27T11:21:15;87188.72;;;8.71;52.81
8047;BME280;67150;42.516;23.358;2023-01-27T11:23:47;87201.53;;;8.68;53.08
8047;BME280;67150;42.516;23.358;2023-01-27T11:26:23;87199.03;;;8.68;52.78
8047;BME280;67150;42.516;23.358;2023-01-27T11:29:13;87203.78;;;8.71;52.61
8047;BME280;67150;42.516;23.358;2023-01-27T11:31:52;87204.84;;;8.69;52.51
8047;BME280;67150;42.516;23.358;2023-01-27T11:34:25;87200.88;;;8.66;52.63
8047;BME280;67150;42.516;23.358;2023-01-27T11:36:57;87194.53;;;8.62;52.93
8047;BME280;67150;42.516;23.358;2023-01-27T11:39:26;87193.75;;;8.62;53.03
8047;BME280;67150;42.516;23.358;2023-01-27T11:41:58;87191.34;;;8.60;52.48
8047;BME280;67150;42.516;23.358;2023-01-27T11:44:28;87190.56;;;8.60;52.77
8047;BME280;67150;42.516;23.358;2023-01-27T11:46:57;87193.47;;;8.55;52.88
8047;BME280;67150;42.516;23.358;2023-01-27T11:49:27;87190.31;;;8.53;52.92
8047;BME280;67150;42.516;23.358;2023-01-27T11:52:00;87190.31;;;8.53;52.71
8047;BME280;67150;42.516;23.358;2023-01-27T11:54:34;87190.97;;;8.55;52.94
8047;BME280;67150;42.516;23.358;2023-01-27T11:57:16;87194.25;;;8.56;52.58
8047;BME280;67150;42.516;23.358;2023-01-27T11:59:47;87192.94;;;8.52;53.12
8047;BME280;67150;42.516;23.358;2023-01-27T12:02:23;87196.25;;;8.52;52.53
8047;BME280;67150;42.516;23.358;2023-01-27T12:04:57;87198.75;;;8.52;52.59
8047;BME280;67150;42.516;23.358;2023-01-27T12:07:36;87195.44;;;8.52;52.82
8047;BME280;67150;42.516;23.358;2023-01-27T12:10:22;87198.22;;;8.49;52.89
8047;BME280;67150;42.516;23.358;2023-01-27T12:12:50;87191.75;;;8.46;52.99
8047;BME280;67150;42.516;23.358;2023-01-27T12:15:19;87187.94;;;8.42;52.85
8047;BME280;67150;42.516;23.358;2023-01-27T12:17:48;87182.91;;;8.42;52.60
8047;BME280;67150;42.516;23.358;2023-01-27T12:20:32;87188.44;;;8.45;52.53
8047;BME280;67150;42.516;23.358;2023-01-27T12:23:05;87181.56;;;8.38;52.66
8047;BME280;67150;42.516;23.358;2023-01-27T12:25:44;87184.47;;;8.43;52.77
8047;BME280;67150;42.516;23.358;2023-01-27T12:28:23;87184.47;;;8.43;52.63
8047;BME280;67150;42.516;23.358;2023-01-27T12:30:56;87180.41;;;8.42;52.94
8047;BME280;67150;42.516;23.358;2023-01-27T12:33:28;87179.06;;;8.38;53.15
8047;BME280;67150;42.516;23.358;2023-01-27T12:35:57;87190.00;;;8.37;52.74
8047;BME280;67150;42.516;23.358;2023-01-27T12:38:28;87186.84;;;8.35;52.92
8047;BME280;67150;42.516;23.358;2023-01-27T12:40:59;87192.78;;;8.34;52.89
8047;BME280;67150;42.516;23.358;2023-01-27T12:43:27;87193.56;;;8.34;52.53
8047;BME280;67150;42.516;23.358;2023-01-27T12:46:19;87180.66;;;8.39;52.68
8047;BME280;67150;42.516;23.358;2023-01-27T12:48:48;87183.44;;;8.36;52.41
8047;BME280;67150;42.516;23.358;2023-01-27T12:51:19;87179.56;;;8.32;53.00
8047;BME280;67150;42.516;23.358;2023-01-27T12:53:50;87172.69;;;8.34;52.99
8047;BME280;67150;42.516;23.358;2023-01-27T12:56:37;87175.34;;;8.32;52.62
8047;BME280;67150;42.516;23.358;2023-01-27T12:59:12;87172.84;;;8.32;52.85
8047;BME280;67150;42.516;23.358;2023-01-27T13:01:42;87171.41;;;8.30;52.59
8047;BME280;67150;42.516;23.358;2023-01-27T13:04:14;87172.19;;;8.30;52.60
8047;BME280;67150;42.516;23.358;2023-01-27T13:06:44;87167.28;;;8.29;52.70
8047;BME280;67150;42.516;23.358;2023-01-27T13:09:24;87168.09;;;8.29;52.67
8047;BME280;67150;42.516;23.358;2023-01-27T13:11:54;87172.53;;;8.26;52.65
8047;BME280;67150;42.516;23.358;2023-01-27T13:14:22;87165.16;;;8.24;52.91
8047;BME280;67150;42.516;23.358;2023-01-27T13:16:52;87169.13;;;8.27;52.82
8047;BME280;67150;42.516;23.358;2023-01-27T13:19:21;87168.31;;;8.26;52.52
8047;BME280;67150;42.516;23.358;2023-01-27T13:21:52;87180.75;;;8.28;52.96
8047;BME280;67150;42.516;23.358;2023-01-27T13:24:28;87179.66;;;8.21;53.06
8047;BME280;67150;42.516;23.358;2023-01-27T13:26:59;87179.66;;;8.21;53.18
8047;BME280;67150;42.516;23.358;2023-01-27T13:29:31;87173.06;;;8.20;52.58
8047;BME280;67150;42.516;23.358;2023-01-27T13:32:03;87177.81;;;8.23;52.77
8047;BME280;67150;42.516;23.358;2023-01-27T13:34:37;87179.03;;;8.19;53.01
8047;BME280;67150;42.516;23.358;2023-01-27T13:37:08;87184.94;;;8.18;52.67
8047;BME280;67150;42.516;23.358;2023-01-27T13:39:46;87186.53;;;8.19;53.16
8047;BME280;67150;42.516;23.358;2023-01-27T13:42:20;87186.81;;;8.16;52.99
8047;BME280;67150;42.516;23.358;2023-01-27T13:44:55;87184.56;;;8.13;52.96
8047;BME280;67150;42.516;23.358;2023-01-27T13:47:29;87185.84;;;8.17;52.76
8047;BME280;67150;42.516;23.358;2023-01-27T13:50:04;87183.06;;;8.10;52.76
8047;BME280;67150;42.516;23.358;2023-01-27T13:52:34;87182.31;;;8.10;53.09
8047;BME280;67150;42.516;23.358;2023-01-27T13:55:03;87189.03;;;8.09;52.70
8047;BME280;67150;42.516;23.358;2023-01-27T13:57:53;87189.94;;;8.08;53.09
8047;BME280;67150;42.516;23.358;2023-01-27T14:00:31;87191.91;;;8.05;52.79
8047;BME280;67150;42.516;23.358;2023-01-27T14:03:20;87195.09;;;8.07;52.79
8047;BME280;67150;42.516;23.358;2023-01-27T14:06:18;87193.38;;;8.07;53.05
8047;BME280;67150;42.516;23.358;2023-01-27T14:08:54;87193.75;;;8.03;52.89
8047;BME280;67150;42.516;23.358;2023-01-27T14:11:28;87203.94;;;8.01;52.98
8047;BME280;67150;42.516;23.358;2023-01-27T14:17:02;87207.09;;;8.03;53.03
8047;BME280;67150;42.516;23.358;2023-01-27T14:19:42;87215.00;;;7.99;52.80
8047;BME280;67150;42.516;23.358;2023-01-27T14:22:23;87218.44;;;7.98;53.25
8047;BME280;67150;42.516;23.358;2023-01-27T14:24:57;87219.59;;;7.94;52.82
8047;BME280;67150;42.516;23.358;2023-01-27T14:27:33;87203.34;;;7.88;53.37
8047;BME280;67150;42.516;23.358;2023-01-27T14:30:11;87214.59;;;7.94;53.42
8047;BME280;67150;42.516;23.358;2023-01-27T14:32:45;87207.06;;;7.94;52.94
8047;BME280;67150;42.516;23.358;2023-01-27T14:35:28;87209.97;;;7.99;52.80
8047;BME280;67150;42.516;23.358;2023-01-27T14:38:06;87202.69;;;7.96;53.14
8047;BME280;67150;42.516;23.358;2023-01-27T14:40:44;87208.66;;;7.95;52.82
8047;BME280;67150;42.516;23.358;2023-01-27T14:43:21;87205.75;;;7.89;53.14
8047;BME280;67150;42.516;23.358;2023-01-27T14:45:56;87207.97;;;7.93;53.12
8047;BME280;67150;42.516;23.358;2023-01-27T14:48:38;87213.38;;;7.88;53.12
8047;BME280;67150;42.516;23.358;2023-01-27T14:51:18;87206.66;;;7.88;53.02
8047;BME280;67150;42.516;23.358;2023-01-27T14:54:03;87216.78;;;7.87;53.21
8047;BME280;67150;42.516;23.358;2023-01-27T14:56:38;87219.44;;;7.85;53.30
8047;BME280;67150;42.516;23.358;2023-01-27T14:59:18;87228.81;;;7.83;53.16
8047;BME280;67150;42.516;23.358;2023-01-27T15:01:56;87229.19;;;7.79;53.14
8047;BME280;67150;42.516;23.358;2023-01-27T15:04:35;87228.13;;;7.81;53.07
8047;BME280;67150;42.516;23.358;2023-01-27T15:07:15;87231.56;;;7.80;53.54
8047;BME280;67150;42.516;23.358;2023-01-27T15:12:46;87236.28;;;7.74;53.35
8047;BME280;67150;42.516;23.358;2023-01-27T15:15:44;87237.34;;;7.81;52.98
8047;BME280;67150;42.516;23.358;2023-01-27T15:18:25;87242.47;;;7.70;53.26
8047;BME280;67150;42.516;23.358;2023-01-27T15:21:16;87247.63;;;7.78;53.36
8047;BME280;67150;42.516;23.358;2023-01-27T15:23:59;87251.34;;;7.74;53.60
8047;BME280;67150;42.516;23.358;2023-01-27T15:26:31;87249.06;;;7.71;53.55
8047;BME280;67150;42.516;23.358;2023-01-27T15:29:00;87247.38;;;7.71;53.11
8047;BME280;67150;42.516;23.358;2023-01-27T15:31:29;87238.88;;;7.63;53.34
8047;BME280;67150;42.516;23.358;2023-01-27T15:34:14;87253.19;;;7.72;53.49
8047;BME280;67150;42.516;23.358;2023-01-27T15:36:58;87244.16;;;7.69;53.47
8047;BME280;67150;42.516;23.358;2023-01-27T15:39:28;87262.53;;;7.70;53.43
8047;BME280;67150;42.516;23.358;2023-01-27T15:42:10;87249.44;;;7.66;53.57
8047;BME280;67150;42.516;23.358;2023-01-27T15:44:39;87252.09;;;7.65;53.21
8047;BME280;67150;42.516;23.358;2023-01-27T15:47:09;87248.66;;;7.66;53.21
8047;BME280;67150;42.516;23.358;2023-01-27T15:49:42;87253.94;;;7.63;53.45
8047;BME280;67150;42.516;23.358;2023-01-27T15:52:24;87258.94;;;7.63;53.69
8047;BME280;67150;42.516;23.358;2023-01-27T15:54:55;87263.81;;;7.64;53.23
8047;BME280;67150;42.516;23.358;2023-01-27T15:57:27;87269.88;;;7.62;53.69
8047;BME280;67150;42.516;23.358;2023-01-27T15:59:59;87264.88;;;7.62;53.29
8047;BME280;67150;42.516;23.358;2023-01-27T16:02:30;87266.47;;;7.63;53.62
8047;BME280;67150;42.516;23.358;2023-01-27T16:05:06;87273.44;;;7.59;53.32
8047;BME280;67150;42.516;23.358;2023-01-27T16:07:35;87275.00;;;7.60;53.58
8047;BME280;67150;42.516;23.358;2023-01-27T16:10:13;87279.34;;;7.58;53.31
8047;BME280;67150;42.516;23.358;2023-01-27T16:12:43;87277.66;;;7.59;53.56
8047;BME280;67150;42.516;23.358;2023-01-27T16:15:22;87292.81;;;7.57;53.17
8047;BME280;67150;42.516;23.358;2023-01-27T16:18:00;87293.84;;;7.55;53.25
8047;BME280;67150;42.516;23.358;2023-01-27T16:20:30;87294.53;;;7.57;53.12
8047;BME280;67150;42.516;23.358;2023-01-27T16:23:00;87294.78;;;7.54;53.21
8047;BME280;67150;42.516;23.358;2023-01-27T16:25:38;87293.97;;;7.53;53.19
8047;BME280;67150;42.516;23.358;2023-01-27T16:28:13;87291.56;;;7.52;53.53
8047;BME280;67150;42.516;23.358;2023-01-27T16:30:46;87298.44;;;7.50;53.40
8047;BME280;67150;42.516;23.358;2023-01-27T16:33:18;87294.06;;;7.52;53.43
8047;BME280;67150;42.516;23.358;2023-01-27T16:35:52;87294.31;;;7.49;53.12
8047;BME280;67150;42.516;23.358;2023-01-27T16:38:23;87284.81;;;7.43;53.17
8047;BME280;67150;42.516;23.358;2023-01-27T16:40:56;87301.31;;;7.45;53.46
8047;BME280;67150;42.516;23.358;2023-01-27T16:43:30;87294.31;;;7.49;53.20
8047;BME280;67150;42.516;23.358;2023-01-27T16:45:59;87289.69;;;7.44;53.64
8047;BME280;67150;42.516;23.358;2023-01-27T16:48:31;87293.91;;;7.44;53.52
8047;BME280;67150;42.516;23.358;2023-01-27T16:51:13;87296.41;;;7.44;53.43
8047;BME280;67150;42.516;23.358;2023-01-27T16:53:46;87298.34;;;7.40;53.55
8047;BME280;67150;42.516;23.358;2023-01-27T16:56:22;87306.56;;;7.42;53.56
8047;BME280;67150;42.516;23.358;2023-01-27T16:58:55;87302.72;;;7.38;53.54
8047;BME280;67150;42.516;23.358;2023-01-27T17:01:26;87302.03;;;7.36;53.51
8047;BME280;67150;42.516;23.358;2023-01-27T17:03:57;87301.25;;;7.36;53.57
8047;BME280;67150;42.516;23.358;2023-01-27T17:06:29;87299.09;;;7.31;53.60
8047;BME280;67150;42.516;23.358;2023-01-27T17:08:57;87304.41;;;7.38;53.70
8047;BME280;67150;42.516;23.358;2023-01-27T17:11:28;87306.38;;;7.34;53.36
8047;BME280;67150;42.516;23.358;2023-01-27T17:13:58;87302.84;;;7.37;53.64
8047;BME280;67150;42.516;23.358;2023-01-27T17:16:28;87309.56;;;7.36;53.41
8047;BME280;67150;42.516;23.358;2023-01-27T17:19:04;87310.84;;;7.30;53.76
8047;BME280;67150;42.516;23.358;2023-01-27T17:21:36;87315.47;;;7.35;53.28
8047;BME280;67150;42.516;23.358;2023-01-27T17:24:13;87315.84;;;7.30;53.36
8047;BME280;67150;42.516;23.358;2023-01-27T17:26:45;87324.16;;;7.31;53.35
8047;BME280;67150;42.516;23.358;2023-01-27T17:29:16;87319.13;;;7.31;53.59
8047;BME280;67150;42.516;23.358;2023-01-27T17:31:44;87319.66;;;7.25;53.97
8047;BME280;67150;42.516;23.358;2023-01-27T17:34:15;87317.91;;;7.25;53.74
8047;BME280;67150;42.516;23.358;2023-01-27T17:37:12;87318.03;;;7.24;53.88
8047;BME280;67150;42.516;23.358;2023-01-27T17:39:41;87323.84;;;7.24;53.84
8047;BME280;67150;42.516;23.358;2023-01-27T17:42:14;87337.28;;;7.23;53.84
8047;BME280;67150;42.516;23.358;2023-01-27T17:44:42;87334.78;;;7.23;53.71
8047;BME280;67150;42.516;23.358;2023-01-27T17:47:12;87334.91;;;7.22;53.54
8047;BME280;67150;42.516;23.358;2023-01-27T17:49:41;87345.47;;;7.25;53.36
8047;BME280;67150;42.516;23.358;2023-01-27T17:52:09;87348.22;;;7.22;53.54
8047;BME280;67150;42.516;23.358;2023-01-27T17:54:38;87351.50;;;7.23;53.57
8047;BME280;67150;42.516;23.358;2023-01-27T17:57:14;87337.81;;;7.06;53.60
8047;BME280;67150;42.516;23.358;2023-01-27T17:59:45;87351.66;;;7.21;53.41
8047;BME280;67150;42.516;23.358;2023-01-27T18:02:17;87356.09;;;7.18;53.71
8047;BME280;67150;42.516;23.358;2023-01-27T18:04:46;87348.81;;;7.15;54.01
8047;BME280;67150;42.516;23.358;2023-01-27T18:07:14;87356.75;;;7.20;53.51
8047;BME280;67150;42.516;23.358;2023-01-27T18:09:43;87352.13;;;7.15;53.87
8047;BME280;67150;42.516;23.358;2023-01-27T18:12:28;87357.25;;;7.14;53.93
8047;BME280;67150;42.516;23.358;2023-01-27T18:14:57;87361.22;;;7.16;53.51
8047;BME280;67150;42.516;23.358;2023-01-27T18:17:25;87362.81;;;7.17;53.33
8047;BME280;67150;42.516;23.358;2023-01-27T18:19:54;87357.25;;;7.14;53.66
8047;BME280;67150;42.516;23.358;2023-01-27T18:22:23;87357.47;;;7.11;53.70
8047;BME280;67150;42.516;23.358;2023-01-27T18:24:53;87371.03;;;7.08;53.98
8047;BME280;67150;42.516;23.358;2023-01-27T18:27:25;87367.72;;;7.08;53.75
8047;BME280;67150;42.516;23.358;2023-01-27T18:29:57;87362.72;;;7.08;53.59
8047;BME280;67150;42.516;23.358;2023-01-27T18:32:35;87372.75;;;7.08;53.79
8047;BME280;67150;42.516;23.358;2023-01-27T18:35:21;87365.91;;;7.10;53.91
8047;BME280;67150;42.516;23.358;2023-01-27T18:37:51;87364.47;;;7.07;53.70
8047;BME280;67150;42.516;23.358;2023-01-27T18:40:28;87374.56;;;7.06;53.90
8047;BME280;67150;42.516;23.358;2023-01-27T18:42:57;87373.09;;;7.03;53.97
8047;BME280;67150;42.516;23.358;2023-01-27T18:45:25;87375.47;;;7.05;53.84
8047;BME280;67150;42.516;23.358;2023-01-27T18:47:53;87381.19;;;7.07;53.80
8047;BME280;67150;42.516;23.358;2023-01-27T18:50:21;87380.38;;;7.06;53.45
8047;BME280;67150;42.516;23.358;2023-01-27T18:52:50;87383.13;;;7.03;53.57
8047;BME280;67150;42.516;23.358;2023-01-27T18:55:20;87388.22;;;7.02;53.48
8047;BME280;67150;42.516;23.358;2023-01-27T18:57:49;87393.47;;;6.99;53.87
8047;BME280;67150;42.516;23.358;2023-01-27T19:00:20;87390.88;;;7.00;53.83
8047;BME280;67150;42.516;23.358;2023-01-27T19:02:49;87389.84;;;7.03;53.54
8047;BME280;67150;42.516;23.358;2023-01-27T19:05:19;87382.47;;;7.01;53.66
8047;BME280;67150;42.516;23.358;2023-01-27T19:07:47;87395.06;;;7.00;53.96
8047;BME280;67150;42.516;23.358;2023-01-27T19:10:15;87384.72;;;6.93;53.49
8047;BME280;67150;42.516;23.358;2023-01-27T19:12:43;87387.69;;;6.98;53.92
8047;BME280;67150;42.516;23.358;2023-01-27T19:15:12;87392.13;;;6.95;53.93
8047;BME280;67150;42.516;23.358;2023-01-27T19:17:42;87393.59;;;6.97;53.61
8047;BME280;67150;42.516;23.358;2023-01-27T19:20:16;87392.00;;;6.96;54.10
8047;BME280;67150;42.516;23.358;2023-01-27T19:22:44;87395.53;;;6.94;53.69
8047;BME280;67150;42.516;23.358;2023-01-27T19:25:13;87401.81;;;6.88;53.89
8047;BME280;67150;42.516;23.358;2023-01-27T19:27:43;87403.53;;;6.88;53.70
8047;BME280;67150;42.516;23.358;2023-01-27T19:30:24;87399.22;;;6.90;53.82
8047;BME280;67150;42.516;23.358;2023-01-27T19:32:54;87401.59;;;6.91;53.61
8047;BME280;67150;42.516;23.358;2023-01-27T19:35:25;87405.78;;;6.91;53.69
8047;BME280;67150;42.516;23.358;2023-01-27T19:37:55;87402.50;;;6.90;53.61
8047;BME280;67150;42.516;23.358;2023-01-27T19:40:25;87410.94;;;6.89;53.98
8047;BME280;67150;42.516;23.358;2023-01-27T19:42:52;87411.97;;;6.87;53.83
8047;BME280;67150;42.516;23.358;2023-01-27T19:45:21;87409.78;;;6.82;53.90
8047;BME280;67150;42.516;23.358;2023-01-27T19:47:48;87402.94;;;6.84;53.71
8047;BME280;67150;42.516;23.358;2023-01-27T19:50:21;87405.47;;;6.84;53.80
8047;BME280;67150;42.516;23.358;2023-01-27T19:52:50;87406.25;;;6.85;53.74
8047;BME280;67150;42.516;23.358;2023-01-27T19:55:18;87402.41;;;6.81;53.72
8047;BME280;67150;42.516;23.358;2023-01-27T19:57:47;87407.66;;;6.78;53.82
8047;BME280;67150;42.516;23.358;2023-01-27T20:00:21;87409.94;;;6.81;54.18
8047;BME280;67150;42.516;23.358;2023-01-27T20:02:49;87409.69;;;6.84;53.72
8047;BME280;67150;42.516;23.358;2023-01-27T20:05:16;87412.53;;;6.79;53.81
8047;BME280;67150;42.516;23.358;2023-01-27T20:07:45;87415.03;;;6.79;54.04
8047;BME280;67150;42.516;23.358;2023-01-27T20:10:18;87414.22;;;6.78;53.80